Time;durP1;ratioP1;P1;durP2;ratioP2;P2;SDS_P1;SDS_P2;PMS_P1;PMS_P2;Temp;Humidity;BMP_temperature;BMP_pressure;BME280_temperature;BME280_humidity;BME280_pressure;Samples;Min_cycle;Max_cycle;Signal;HPM_P1;HPM_P2
2022/09/03 00:02:03;;;;;;;1.23;0.40;;;;;;;17.08;80.60;100630.84;5008356;28;20087;-90
2022/09/03 00:05:06;;;;;;;;;;;;;;;;;;;;;
2022/09/03 00:07:56;;;;;;;2.67;0.50;;;;;;;17.23;80.77;100626.38;4992375;28;20041;-91
2022/09/03 00:10:46;;;;;;;1.63;0.40;;;;;;;17.20;81.84;100627.56;5002785;28;20128;-89
2022/09/03 00:13:29;;;;;;;2.65;0.55;;;;;;;17.10;82.04;100626.22;4957069;28;20050;-90
2022/09/03 00:15:58;;;;;;;1.40;0.40;;;;;;;17.10;82.33;100620.94;5005260;28;20029;-88
2022/09/03 00:18:28;;;;;;;1.00;0.70;;;;;;;17.06;82.36;100625.75;5010233;28;20448;-89
2022/09/03 00:21:07;;;;;;;1.73;0.63;;;;;;;16.98;83.47;100627.69;5009492;28;20065;-91
2022/09/03 00:23:36;;;;;;;1.60;0.50;;;;;;;16.91;83.27;100633.69;5007180;28;20036;-87
2022/09/03 00:26:11;;;;;;;2.00;0.75;;;;;;;16.77;82.06;100629.22;5006920;28;20030;-86
2022/09/03 00:29:17;;;;;;;0.95;0.50;;;;;;;16.79;81.61;100621.97;5007562;28;20046;-86
2022/09/03 00:31:50;;;;;;;2.13;0.40;;;;;;;16.85;82.67;100634.41;5007727;28;20037;-89
2022/09/03 00:34:25;;;;;;;0.75;0.40;;;;;;;16.80;83.33;100635.94;5006305;28;20363;-87
2022/09/03 00:36:52;;;;;;;1.23;0.40;;;;;;;16.68;83.91;100643.47;5004755;28;20389;-88
2022/09/03 00:39:20;;;;;;;3.65;0.60;;;;;;;16.66;84.20;100634.94;5006870;28;20137;-90
2022/09/03 00:42:09;;;;;;;1.55;0.65;;;;;;;16.60;84.23;100638.25;5006197;28;20038;-87
2022/09/03 00:44:57;;;;;;;1.10;0.40;;;;;;;16.51;84.83;100634.91;5023761;28;20049;-87
2022/09/03 00:47:48;;;;;;;3.40;0.60;;;;;;;16.55;84.61;100633.50;5020601;28;20038;-90
2022/09/03 00:50:42;;;;;;;1.08;0.30;;;;;;;16.58;84.01;100637.59;4984106;28;20073;-88
2022/09/03 00:53:26;;;;;;;1.50;0.47;;;;;;;16.65;83.86;100633.28;4996068;28;20061;-91
2022/09/03 00:56:02;;;;;;;1.83;0.40;;;;;;;16.74;83.12;100632.22;5006334;28;20113;-91
2022/09/03 00:58:50;;;;;;;2.95;0.47;;;;;;;16.79;82.87;100635.13;5022762;28;20065;-91
2022/09/03 01:01:30;;;;;;;2.63;0.60;;;;;;;16.85;83.28;100638.84;5011732;28;20045;-90
2022/09/03 01:04:12;;;;;;;4.65;0.50;;;;;;;16.76;83.96;100639.94;5008083;28;20358;-89
2022/09/03 01:06:51;;;;;;;4.35;0.50;;;;;;;16.63;85.15;100643.16;5029885;28;20033;-88
2022/09/03 01:09:32;;;;;;;1.13;0.40;;;;;;;16.57;85.81;100641.22;5009945;28;20121;-91
2022/09/03 01:12:15;;;;;;;0.75;0.32;;;;;;;16.49;87.50;100647.41;5008617;28;20492;-89
2022/09/03 01:14:56;;;;;;;3.72;0.70;;;;;;;16.44;85.94;100643.66;5005936;28;20026;-90
2022/09/03 01:18:03;;;;;;;1.38;0.40;;;;;;;16.55;84.49;100651.09;5007400;28;20357;-91
2022/09/03 01:20:57;;;;;;;3.13;0.40;;;;;;;16.67;83.41;100660.25;4950751;28;20077;-90
2022/09/03 01:23:49;;;;;;;2.40;0.40;;;;;;;16.73;82.95;100645.56;4954633;28;20482;-89
2022/09/03 01:26:44;;;;;;;1.58;0.50;;;;;;;16.67;85.17;100651.53;4956864;28;20035;-91
2022/09/03 01:29:34;;;;;;;1.40;0.50;;;;;;;16.79;82.41;100635.13;4956678;28;20038;-90
2022/09/03 01:32:18;;;;;;;1.00;0.40;;;;;;;16.96;80.65;100642.84;4956644;28;20038;-90
2022/09/03 01:35:18;;;;;;;1.23;0.57;;;;;;;16.99;81.04;100642.50;4972250;28;20046;-92
2022/09/03 01:37:57;;;;;;;2.22;0.40;;;;;;;16.92;81.63;100640.59;4971992;28;20118;-88
2022/09/03 01:40:29;;;;;;;3.00;0.50;;;;;;;16.89;81.33;100635.69;4952737;28;20098;-87
2022/09/03 01:43:38;;;;;;;3.13;0.45;;;;;;;16.82;81.76;100642.66;4948042;28;20134;-91
2022/09/03 01:46:25;;;;;;;1.73;0.30;;;;;;;16.76;82.73;100651.28;4971642;28;20113;-91
2022/09/03 01:49:10;;;;;;;0.60;0.30;;;;;;;16.70;83.15;100648.53;4956125;28;20045;-91
2022/09/03 01:51:35;;;;;;;3.80;0.40;;;;;;;16.67;82.75;100654.97;4970609;28;20039;-90
2022/09/03 01:54:16;;;;;;;2.92;0.35;;;;;;;16.64;83.00;100657.97;4970270;28;20045;-90
2022/09/03 01:56:56;;;;;;;2.90;0.70;;;;;;;16.63;83.44;100653.66;5012184;28;20089;-91
2022/09/03 02:00:00;;;;;;;1.92;0.50;;;;;;;16.55;84.41;100653.75;5019183;28;20064;-86
2022/09/03 02:02:28;;;;;;;1.02;0.40;;;;;;;16.51;84.38;100653.31;4940017;29;20047;-91
2022/09/03 02:05:17;;;;;;;4.95;0.50;;;;;;;16.44;84.59;100654.19;4949396;28;20525;-88
2022/09/03 02:08:07;;;;;;;0.70;0.40;;;;;;;16.51;84.94;100657.75;4952347;28;20483;-89
2022/09/03 02:10:47;;;;;;;1.33;0.50;;;;;;;16.51;84.63;100647.22;4929395;29;20457;-91
2022/09/03 02:13:29;;;;;;;3.33;0.50;;;;;;;16.55;82.78;100648.47;4934684;29;20066;-89
2022/09/03 02:15:59;;;;;;;1.15;0.50;;;;;;;16.74;80.81;100650.63;4935796;29;20075;-86
2022/09/03 02:18:30;;;;;;;4.97;0.70;;;;;;;16.90;80.14;100652.28;4950033;28;20047;-90
2022/09/03 02:20:57;;;;;;;1.27;0.50;;;;;;;16.81;81.07;100659.44;4933785;28;20554;-87
2022/09/03 02:23:24;;;;;;;4.30;0.40;;;;;;;16.71;81.74;100672.03;4938170;28;20035;-88
2022/09/03 02:26:01;;;;;;;1.00;0.50;;;;;;;16.60;82.60;100667.16;4934446;28;20614;-91
2022/09/03 02:28:31;;;;;;;4.93;0.50;;;;;;;16.59;82.53;100673.44;4956777;28;20134;-90
2022/09/03 02:30:57;;;;;;;4.75;0.65;;;;;;;16.61;82.50;100674.06;4953247;28;20087;-88
2022/09/03 02:33:23;;;;;;;2.08;0.65;;;;;;;16.66;82.68;100687.53;4980311;28;20061;-86
2022/09/03 02:35:48;;;;;;;3.00;0.80;;;;;;;16.60;83.18;100677.69;5021367;28;20136;-87
2022/09/03 02:38:20;;;;;;;1.45;0.55;;;;;;;16.59;82.80;100673.44;5018238;28;20049;-86
2022/09/03 02:40:46;;;;;;;0.90;0.45;;;;;;;16.56;82.93;100676.41;5017540;28;20399;-85
2022/09/03 02:43:39;;;;;;;0.80;0.43;;;;;;;16.55;83.42;100672.97;5017913;28;20049;-87
2022/09/03 02:46:09;;;;;;;1.83;0.60;;;;;;;16.58;82.33;100666.53;5017599;28;20127;-91
2022/09/03 02:48:40;;;;;;;2.67;0.50;;;;;;;16.58;82.25;100666.53;5017604;28;20048;-87
2022/09/03 02:51:06;;;;;;;3.58;0.55;;;;;;;16.61;81.75;100663.53;5013370;28;20052;-86
2022/09/03 02:53:31;;;;;;;4.53;0.98;;;;;;;16.67;81.10;100654.16;5006096;28;20034;-88
2022/09/03 02:56:00;;;;;;;3.30;0.52;;;;;;;16.72;80.99;100659.69;5011646;28;20030;-90
2022/09/03 02:58:27;;;;;;;3.90;0.60;;;;;;;16.74;80.99;100653.25;5008510;28;20551;-87
2022/09/03 03:00:53;;;;;;;2.25;0.47;;;;;;;16.77;80.86;100652.09;5009121;28;20034;-86
2022/09/03 03:03:19;;;;;;;1.10;0.52;;;;;;;16.72;81.01;100665.78;5008126;28;20099;-91
2022/09/03 03:05:49;;;;;;;1.33;0.40;;;;;;;16.49;82.33;100667.63;5011063;28;20042;-94
2022/09/03 03:08:15;;;;;;;1.67;0.60;;;;;;;16.32;83.25;100666.13;5008633;28;20465;-88
2022/09/03 03:10:44;;;;;;;1.83;0.50;;;;;;;16.23;83.99;100671.44;5009934;28;20037;-88
2022/09/03 03:13:11;;;;;;;5.20;0.50;;;;;;;16.23;83.84;100670.63;5013809;28;20034;-86
2022/09/03 03:15:36;;;;;;;6.28;0.63;;;;;;;16.26;83.48;100665.81;5013690;28;20366;-90
2022/09/03 03:18:19;;;;;;;2.47;0.55;;;;;;;16.30;83.03;100665.47;5012391;28;20037;-90
2022/09/03 03:20:47;;;;;;;1.10;0.40;;;;;;;16.39;82.95;100664.41;5011048;28;20034;-92
2022/09/03 03:23:12;;;;;;;2.55;0.50;;;;;;;16.39;82.39;100659.16;5009087;28;20029;-92
2022/09/03 03:25:38;;;;;;;3.45;0.50;;;;;;;16.43;82.47;100661.25;5012430;28;20040;-88
2022/09/03 03:28:05;;;;;;;1.88;0.50;;;;;;;16.45;82.27;100666.34;5010468;28;20042;-86
2022/09/03 03:30:32;;;;;;;1.92;0.50;;;;;;;16.39;82.79;100669.69;5008526;28;20033;-88
2022/09/03 03:32:58;;;;;;;4.20;0.45;;;;;;;16.36;83.10;100667.41;5023689;28;20032;-88
2022/09/03 03:35:24;;;;;;;2.80;0.40;;;;;;;16.32;83.21;100671.38;5007814;28;20121;-87
2022/09/03 03:37:49;;;;;;;1.58;0.50;;;;;;;16.29;83.53;100675.19;5008134;28;20083;-87
2022/09/03 03:40:15;;;;;;;1.77;0.40;;;;;;;16.26;83.18;100660.56;5009020;28;20065;-87
2022/09/03 03:42:41;;;;;;;0.80;0.32;;;;;;;16.33;82.78;100660.69;5009452;28;20042;-87
2022/09/03 03:45:08;;;;;;;1.55;0.60;;;;;;;16.34;82.45;100664.13;5007389;28;20048;-88
2022/09/03 03:47:35;;;;;;;0.90;0.30;;;;;;;16.35;82.40;100660.50;5008805;28;20046;-88
2022/09/03 03:50:01;;;;;;;2.85;0.57;;;;;;;16.38;81.88;100668.88;5007674;28;20026;-91
2022/09/03 03:52:27;;;;;;;1.35;0.60;;;;;;;16.40;82.06;100663.44;5009416;28;20620;-90
2022/09/03 03:54:53;;;;;;;1.35;0.50;;;;;;;16.40;82.04;100663.44;5009852;28;20118;-90
2022/09/03 03:57:19;;;;;;;0.68;0.40;;;;;;;16.43;82.05;100655.19;5013523;28;20071;-88
2022/09/03 03:59:46;;;;;;;3.00;0.60;;;;;;;16.45;81.81;100658.47;5011402;28;20029;-90
2022/09/03 04:02:12;;;;;;;2.10;0.60;;;;;;;16.50;80.99;100653.47;5011792;28;20069;-91
2022/09/03 04:04:37;;;;;;;5.50;0.55;;;;;;;16.63;80.20;100652.84;5009886;28;20049;-89
2022/09/03 04:07:03;;;;;;;1.15;0.55;;;;;;;16.63;80.19;100656.28;5026066;28;20068;-93
2022/09/03 04:09:28;;;;;;;1.55;0.50;;;;;;;16.63;80.21;100651.03;5002362;28;20030;-88
2022/09/03 04:11:56;;;;;;;2.13;0.60;;;;;;;16.62;80.25;100661.72;5004576;28;20344;-90
2022/09/03 04:14:22;;;;;;;2.78;0.90;;;;;;;16.62;80.37;100653.84;4994991;28;20033;-90
2022/09/03 04:17:09;;;;;;;6.68;0.40;;;;;;;16.62;80.14;100659.91;5009086;28;20034;-88
2022/09/03 04:19:33;;;;;;;2.08;0.47;;;;;;;16.57;81.05;100654.38;5005072;28;20160;-90
2022/09/03 04:21:59;;;;;;;1.05;0.50;;;;;;;16.41;81.80;100658.00;5007344;28;20037;-90
2022/09/03 04:24:25;;;;;;;1.35;0.40;;;;;;;16.25;82.99;100658.13;5009913;28;20080;-89
2022/09/03 04:26:50;;;;;;;3.25;0.70;;;;;;;16.05;84.26;100663.06;5012218;28;20026;-86
2022/09/03 04:29:17;;;;;;;1.65;0.50;;;;;;;15.95;84.61;100662.47;5018204;28;20122;-88
2022/09/03 04:32:51;;;;;;;0.88;0.38;;;;;;;15.97;84.66;100657.84;5018334;28;20101;-88
2022/09/03 04:34:28;;;;;;;4.05;0.70;;;;;;;15.96;84.67;100658.84;5019119;28;20038;-85
2022/09/03 04:36:53;;;;;;;2.10;0.60;;;;;;;15.92;85.10;100662.81;5016267;28;20120;-88
2022/09/03 04:39:19;;;;;;;1.75;0.55;;;;;;;15.90;85.05;100667.41;5015424;28;20030;-85
2022/09/03 04:41:44;;;;;;;1.85;0.50;;;;;;;15.85;85.56;100659.22;5028784;28;20037;-87
2022/09/03 04:44:11;;;;;;;1.65;0.73;;;;;;;15.87;85.24;100663.31;5015305;28;20094;-86
2022/09/03 04:46:36;;;;;;;4.25;0.50;;;;;;;15.92;85.06;100668.06;5017309;28;20053;-84
2022/09/03 04:49:02;;;;;;;3.42;0.60;;;;;;;15.92;85.11;100668.88;5015940;28;20033;-89
2022/09/03 04:51:31;;;;;;;2.38;0.52;;;;;;;15.91;84.89;100667.25;5008832;28;20126;-89
2022/09/03 04:54:00;;;;;;;2.17;0.50;;;;;;;15.93;84.78;100669.69;5011211;28;20038;-87
2022/09/03 04:56:45;;;;;;;5.78;0.70;;;;;;;15.90;85.65;100675.31;5030853;28;20030;-86
2022/09/03 04:59:12;;;;;;;1.33;0.43;;;;;;;15.89;85.11;100673.66;5013345;28;20041;-91
2022/09/03 05:01:38;;;;;;;3.92;0.70;;;;;;;15.88;85.54;100672.03;5013237;28;20029;-91
2022/09/03 05:04:05;;;;;;;1.92;0.70;;;;;;;15.88;85.58;100677.28;5016574;28;20056;-87
2022/09/03 05:06:32;;;;;;;3.80;0.55;;;;;;;15.88;85.78;100672.03;5029715;28;20022;-89
2022/09/03 05:08:58;;;;;;;4.20;0.50;;;;;;;15.90;85.78;100677.94;5030387;28;20041;-87
2022/09/03 05:11:25;;;;;;;3.63;0.80;;;;;;;15.92;85.51;100671.50;5013534;28;20030;-89
2022/09/03 05:13:53;;;;;;;1.10;0.40;;;;;;;16.03;84.55;100670.28;5015611;28;20121;-89
2022/09/03 05:16:19;;;;;;;4.68;0.70;;;;;;;16.13;84.18;100670.03;5014725;28;20030;-90
2022/09/03 05:18:46;;;;;;;6.03;0.40;;;;;;;16.21;83.63;100665.53;4994207;28;20125;-89
2022/09/03 05:21:17;;;;;;;0.98;0.40;;;;;;;16.29;82.81;100669.09;4999247;28;20104;-88
2022/09/03 05:23:49;;;;;;;1.30;0.40;;;;;;;16.37;82.03;100666.41;5011249;28;20030;-84
2022/09/03 05:26:43;;;;;;;1.50;0.50;;;;;;;16.44;81.57;100667.34;5001780;28;20036;-88
2022/09/03 05:29:08;;;;;;;1.70;0.50;;;;;;;16.54;80.95;100663.44;4997546;28;20513;-88
2022/09/03 05:31:37;;;;;;;1.77;0.50;;;;;;;16.64;80.42;100673.75;5012284;28;20149;-91
2022/09/03 05:34:05;;;;;;;1.15;0.50;;;;;;;16.73;79.91;100670.03;5015031;28;20096;-90
2022/09/03 05:36:35;;;;;;;1.60;0.60;;;;;;;16.81;78.94;100672.59;5012510;28;20037;-88
2022/09/03 05:39:01;;;;;;;1.92;0.30;;;;;;;16.84;79.33;100672.25;5012374;28;20045;-89
2022/09/03 05:41:28;;;;;;;2.13;0.45;;;;;;;16.85;79.54;100680.97;5014741;28;20029;-87
2022/09/03 05:43:55;;;;;;;2.00;0.50;;;;;;;16.87;79.34;100677.16;5011428;28;20052;-87
2022/09/03 05:46:28;;;;;;;1.83;0.60;;;;;;;16.86;79.63;100670.25;5012019;28;20041;-88
2022/09/03 05:48:54;;;;;;;3.22;0.52;;;;;;;16.86;80.55;100667.63;5016237;28;20199;-85
2022/09/03 05:51:20;;;;;;;2.35;0.60;;;;;;;16.78;81.20;100670.31;5012532;28;20069;-87
2022/09/03 05:53:47;;;;;;;1.42;0.52;;;;;;;16.77;81.64;100673.97;5012709;28;20093;-87
2022/09/03 05:56:18;;;;;;;2.65;0.50;;;;;;;16.85;80.92;100670.44;5010713;28;20049;-89
2022/09/03 05:59:08;;;;;;;1.85;0.60;;;;;;;16.96;79.90;100656.00;5009612;28;20071;-86
2022/09/03 06:01:38;;;;;;;1.17;0.40;;;;;;;17.03;79.51;100656.91;5011439;28;20041;-90
2022/09/03 06:04:15;;;;;;;3.08;0.40;;;;;;;17.10;78.77;100658.63;5009032;28;20041;-86
2022/09/03 06:06:42;;;;;;;3.03;0.47;;;;;;;17.17;78.44;100649.00;5009604;28;20018;-89
2022/09/03 06:09:15;;;;;;;1.20;0.40;;;;;;;17.25;77.52;100654.16;5007623;28;20033;-91
2022/09/03 06:11:41;;;;;;;2.83;0.50;;;;;;;17.28;77.72;100653.00;5011953;28;20164;-86
2022/09/03 06:14:08;;;;;;;1.50;0.40;;;;;;;17.36;77.47;100647.63;5010824;28;20030;-87
2022/09/03 06:16:39;;;;;;;1.92;0.60;;;;;;;17.51;76.43;100640.50;5008057;28;20042;-87
2022/09/03 06:19:26;;;;;;;0.68;0.30;;;;;;;17.78;75.16;100646.09;5006770;28;20034;-88
2022/09/03 06:21:51;;;;;;;3.55;0.30;;;;;;;17.89;74.76;100633.25;5008842;28;20390;-89
2022/09/03 06:24:22;;;;;;;4.28;0.63;;;;;;;18.03;74.88;100639.44;5006942;28;20045;-86
2022/09/03 06:26:47;;;;;;;3.47;0.47;;;;;;;18.16;73.82;100644.03;5019800;28;20034;-89
2022/09/03 06:29:13;;;;;;;1.05;0.52;;;;;;;18.22;74.19;100630.91;5008743;28;20030;-88
2022/09/03 06:31:39;;;;;;;4.20;0.40;;;;;;;18.30;74.34;100631.75;5008019;28;20033;-88
2022/09/03 06:34:04;;;;;;;1.83;0.43;;;;;;;18.41;74.51;100628.63;5009547;28;20041;-88
2022/09/03 06:36:31;;;;;;;3.17;0.40;;;;;;;18.54;74.20;100620.78;5008954;28;20489;-89
2022/09/03 06:38:57;;;;;;;0.88;0.50;;;;;;;18.65;73.90;100607.09;5005749;28;20030;-88
2022/09/03 06:41:25;;;;;;;0.90;0.40;;;;;;;18.78;73.75;100609.81;5011597;28;20042;-85
2022/09/03 06:44:01;;;;;;;1.75;1.02;;;;;;;18.85;73.32;100607.22;5013702;28;20053;-88
2022/09/03 06:46:26;;;;;;;;;;;;;;;18.90;72.64;100610.88;5011326;28;20073;-89
2022/09/03 06:48:52;;;;;;;2.08;0.40;;;;;;;18.98;73.79;100606.44;5009240;28;20005;-90
2022/09/03 06:51:22;;;;;;;1.73;0.40;;;;;;;19.06;72.74;100614.19;5009163;28;20208;-89
2022/09/03 06:53:56;;;;;;;2.67;0.40;;;;;;;19.14;72.07;100612.22;5008211;28;20033;-88
2022/09/03 06:56:27;;;;;;;2.20;0.50;;;;;;;19.17;71.80;100600.44;5006199;28;20045;-87
2022/09/03 06:58:57;;;;;;;1.02;0.40;;;;;;;19.27;72.22;100600.06;5007452;28;20030;-86
2022/09/03 07:01:25;;;;;;;1.27;0.40;;;;;;;19.35;72.00;100603.38;5007567;28;20477;-90
2022/09/03 07:03:56;;;;;;;2.85;0.40;;;;;;;19.47;71.64;100604.38;5007726;28;20030;-85
2022/09/03 07:06:26;;;;;;;1.25;0.35;;;;;;;19.63;72.04;100607.72;5020578;28;20030;-86
2022/09/03 07:08:52;;;;;;;0.98;0.30;;;;;;;19.69;72.03;100615.66;5001700;28;20127;-85
2022/09/03 07:11:22;;;;;;;0.88;0.40;;;;;;;19.84;71.08;100611.03;5004744;28;20030;-85
2022/09/03 07:13:49;;;;;;;0.80;0.32;;;;;;;19.88;71.03;100603.47;5006612;28;20121;-86
2022/09/03 07:16:28;;;;;;;2.53;0.30;;;;;;;19.91;70.48;100613.66;5006185;28;20057;-85
2022/09/03 07:18:54;;;;;;;2.97;0.50;;;;;;;19.81;70.69;100606.13;5006748;28;20083;-84
2022/09/03 07:21:23;;;;;;;6.05;0.57;;;;;;;19.79;70.72;100610.81;5004609;28;20068;-86
2022/09/03 07:23:54;;;;;;;0.88;0.43;;;;;;;19.87;70.46;100607.13;5021693;28;20033;-86
2022/09/03 07:26:24;;;;;;;1.10;0.32;;;;;;;19.98;70.02;100603.91;5008732;28;20044;-84
2022/09/03 07:28:50;;;;;;;1.15;0.30;;;;;;;20.07;69.21;100607.97;5006985;28;20042;-86
2022/09/03 07:31:18;;;;;;;0.77;0.35;;;;;;;20.13;69.13;100609.81;5007928;28;20034;-87
2022/09/03 07:33:43;;;;;;;3.25;0.40;;;;;;;20.17;69.51;100607.59;5007870;28;20029;-85
2022/09/03 07:36:13;;;;;;;3.45;0.40;;;;;;;20.24;69.63;100611.03;5007575;28;20026;-86
2022/09/03 07:38:38;;;;;;;2.85;0.40;;;;;;;20.40;68.90;100612.47;5022381;28;20132;-84
2022/09/03 07:41:06;;;;;;;1.80;0.38;;;;;;;20.50;68.42;100620.81;5008241;28;20117;-85
2022/09/03 07:43:42;;;;;;;2.15;0.60;;;;;;;20.56;68.84;100621.81;5021519;28;20046;-86
2022/09/03 07:46:13;;;;;;;1.77;0.60;;;;;;;20.66;69.84;100622.22;5008524;28;20025;-86
2022/09/03 07:48:40;;;;;;;0.80;0.40;;;;;;;20.87;69.10;100624.59;5007909;28;20064;-89
2022/09/03 07:51:07;;;;;;;1.95;0.60;;;;;;;21.02;68.42;100622.53;5006566;28;20037;-86
2022/09/03 07:53:33;;;;;;;3.90;0.40;;;;;;;21.17;67.94;100627.56;5006204;28;20034;-86
2022/09/03 07:56:04;;;;;;;2.38;0.47;;;;;;;21.31;66.69;100625.69;5004693;28;20436;-84
2022/09/03 07:58:42;;;;;;;2.15;0.50;;;;;;;21.24;67.48;100638.19;5005385;28;20030;-86
2022/09/03 08:01:12;;;;;;;2.55;0.70;;;;;;;21.32;65.85;100633.44;5006400;28;20040;-87
2022/09/03 08:03:42;;;;;;;1.67;0.40;;;;;;;21.45;65.49;100643.16;5006304;28;20037;-86
2022/09/03 08:06:07;;;;;;;2.60;0.40;;;;;;;21.52;65.84;100634.16;5007538;28;20041;-87
2022/09/03 08:08:37;;;;;;;0.57;0.28;;;;;;;21.67;65.02;100641.03;5001102;28;20042;-85
2022/09/03 08:11:10;;;;;;;0.70;0.30;;;;;;;21.74;64.02;100647.09;4997946;28;20033;-84
2022/09/03 08:13:39;;;;;;;0.88;0.40;;;;;;;21.83;64.05;100645.81;5003644;28;20042;-85
2022/09/03 08:16:06;;;;;;;4.80;0.68;;;;;;;21.85;64.80;100635.78;5002394;28;20045;-85
2022/09/03 08:18:36;;;;;;;4.18;0.80;;;;;;;21.91;63.42;100637.59;5003982;28;20152;-83
2022/09/03 08:21:07;;;;;;;1.10;0.60;;;;;;;21.92;61.54;100643.72;5008811;28;20113;-85
2022/09/03 08:23:37;;;;;;;1.45;0.40;;;;;;;22.04;63.42;100648.16;5007027;28;20038;-86
2022/09/03 08:26:03;;;;;;;2.55;0.50;;;;;;;22.23;62.39;100642.88;5003022;28;20026;-85
2022/09/03 08:28:37;;;;;;;2.28;0.40;;;;;;;22.26;61.78;100645.09;4999036;28;20040;-83
2022/09/03 08:31:10;;;;;;;3.67;0.50;;;;;;;22.48;61.95;100644.53;5005611;28;20124;-84
2022/09/03 08:33:36;;;;;;;4.20;0.60;;;;;;;22.71;61.09;100646.53;5006044;28;20456;-84
2022/09/03 08:36:28;;;;;;;5.28;0.50;;;;;;;22.76;60.39;100644.03;5008033;28;20041;-84
2022/09/03 08:38:54;;;;;;;1.02;0.20;;;;;;;22.83;60.62;100654.63;5002441;28;20065;-85
2022/09/03 08:41:30;;;;;;;1.88;0.32;;;;;;;22.81;61.31;100651.38;5003849;28;20036;-86
2022/09/03 08:44:01;;;;;;;36.88;7.28;;;;;;;22.87;60.86;100658.47;5006158;28;20655;-85
2022/09/03 08:46:52;;;;;;;7.13;1.95;;;;;;;22.92;60.37;100661.28;5006131;28;20710;-84
2022/09/03 08:49:28;;;;;;;11.85;2.15;;;;;;;22.91;61.11;100659.66;4990193;28;20061;-84
2022/09/03 08:51:57;;;;;;;1.88;0.52;;;;;;;23.01;61.22;100653.81;5004618;28;20037;-84
2022/09/03 08:54:26;;;;;;;7.07;0.40;;;;;;;22.89;61.03;100650.28;5005830;28;20455;-84
2022/09/03 08:56:53;;;;;;;11.35;1.52;;;;;;;22.71;61.56;100662.47;5005986;28;20124;-85
2022/09/03 08:59:20;;;;;;;31.98;4.00;;;;;;;22.54;61.71;100656.13;5005375;28;20025;-85
2022/09/03 09:02:10;;;;;;;8.30;0.80;;;;;;;22.44;59.97;100659.25;5004817;28;20346;-85
2022/09/03 09:04:59;;;;;;;7.03;0.60;;;;;;;22.48;59.44;100660.44;5004633;28;20057;-84
2022/09/03 09:07:37;;;;;;;1.35;0.40;;;;;;;22.59;61.07;100660.78;5005530;28;20041;-83
2022/09/03 09:10:20;;;;;;;1.85;0.30;;;;;;;22.47;57.09;100658.81;5006970;28;20038;-84
2022/09/03 09:13:15;;;;;;;1.63;0.30;;;;;;;22.46;58.25;100659.03;5006598;28;20420;-83
2022/09/03 09:15:55;;;;;;;1.00;0.30;;;;;;;22.41;59.36;100664.19;5003647;28;20045;-85
2022/09/03 09:18:46;;;;;;;3.65;0.43;;;;;;;22.43;58.09;100662.13;5019228;28;20041;-84
2022/09/03 09:21:19;;;;;;;2.05;0.20;;;;;;;22.42;59.62;100668.47;5015754;28;20042;-85
2022/09/03 09:23:47;;;;;;;0.68;0.35;;;;;;;22.45;58.13;100662.72;5021820;28;20034;-85
2022/09/03 09:26:16;;;;;;;0.98;0.30;;;;;;;22.43;58.23;100664.78;5007875;28;20040;-84
2022/09/03 09:28:46;;;;;;;0.45;0.20;;;;;;;22.36;57.84;100678.09;5007742;28;20042;-84
2022/09/03 09:31:17;;;;;;;1.50;0.20;;;;;;;22.37;57.07;100668.31;5002720;28;20027;-85
2022/09/03 09:33:43;;;;;;;0.82;0.20;;;;;;;22.38;57.01;100665.44;5004007;28;20038;-84
2022/09/03 09:36:14;;;;;;;1.75;0.20;;;;;;;22.45;57.36;100676.00;5008680;28;20037;-84
2022/09/03 09:38:40;;;;;;;3.28;0.20;;;;;;;22.61;55.63;100666.69;5008722;28;20022;-84
2022/09/03 09:41:18;;;;;;;2.72;0.10;;;;;;;22.77;54.12;100658.13;5010512;28;20112;-83
2022/09/03 09:43:46;;;;;;;0.82;0.22;;;;;;;23.02;52.71;100661.56;5010285;28;20398;-84
2022/09/03 09:46:27;;;;;;;0.65;0.20;;;;;;;23.03;52.52;100667.72;4995139;28;20121;-84
2022/09/03 09:48:58;;;;;;;0.77;0.30;;;;;;;22.92;54.17;100665.78;5008282;28;20038;-84
2022/09/03 09:51:27;;;;;;;2.20;0.30;;;;;;;22.82;53.96;100666.28;5011287;28;20455;-85
2022/09/03 09:54:26;;;;;;;0.93;0.35;;;;;;;22.75;54.21;100660.19;5008884;28;20061;-84
2022/09/03 09:57:04;;;;;;;0.55;0.30;;;;;;;22.80;54.62;100668.34;5008679;28;20508;-84
2022/09/03 09:59:30;;;;;;;2.40;0.28;;;;;;;22.82;55.23;100663.63;5022666;28;20037;-85
2022/09/03 10:02:27;;;;;;;2.40;0.20;;;;;;;22.82;54.27;100674.25;4995926;28;20037;-85
2022/09/03 10:04:57;;;;;;;1.42;0.30;;;;;;;22.91;54.18;100669.47;5006833;28;20042;-85
2022/09/03 10:07:31;;;;;;;1.83;0.28;;;;;;;23.06;53.31;100677.91;5012038;28;20044;-83
2022/09/03 10:10:15;;;;;;;2.15;0.30;;;;;;;23.10;53.08;100669.25;5009687;28;20034;-84
2022/09/03 10:13:08;;;;;;;0.65;0.25;;;;;;;23.28;52.68;100660.44;5005672;28;20066;-84
2022/09/03 10:15:51;;;;;;;1.48;0.30;;;;;;;23.43;53.34;100668.84;4991016;28;20512;-84
2022/09/03 10:18:51;;;;;;;0.52;0.20;;;;;;;23.33;54.85;100665.09;4997892;28;20038;-85
2022/09/03 10:21:27;;;;;;;0.82;0.25;;;;;;;23.40;54.17;100674.63;5004930;28;20111;-84
2022/09/03 10:23:58;;;;;;;0.47;0.20;;;;;;;23.40;53.34;100671.16;5009241;28;20102;-85
2022/09/03 10:26:28;;;;;;;0.35;0.20;;;;;;;23.41;53.43;100672.78;5010536;28;20165;-85
2022/09/03 10:28:58;;;;;;;1.85;0.30;;;;;;;23.59;52.96;100670.13;5010506;28;20026;-86
2022/09/03 10:31:44;;;;;;;1.08;0.20;;;;;;;23.46;50.75;100668.41;5010326;28;20057;-85
2022/09/03 10:34:37;;;;;;;1.95;0.20;;;;;;;23.53;53.46;100668.34;5021374;28;20049;-86
2022/09/03 10:37:27;;;;;;;0.60;0.28;;;;;;;23.50;53.54;100672.25;4990747;28;20173;-85
2022/09/03 10:40:30;;;;;;;2.35;0.20;;;;;;;23.62;54.45;100668.84;4990569;28;20041;-86
2022/09/03 10:43:17;;;;;;;2.08;0.20;;;;;;;23.55;53.13;100678.78;4990186;28;20046;-86
2022/09/03 10:46:17;;;;;;;1.40;0.20;;;;;;;23.39;53.65;100675.66;5001892;28;20029;-86
2022/09/03 10:48:54;;;;;;;1.55;0.20;;;;;;;23.26;53.55;100670.50;5008752;28;20130;-86
2022/09/03 10:51:35;;;;;;;2.05;0.20;;;;;;;23.21;53.04;100678.31;5009593;28;20033;-85
2022/09/03 10:54:23;;;;;;;0.43;0.20;;;;;;;23.17;53.38;100669.16;5008590;28;20428;-84
2022/09/03 10:57:27;;;;;;;3.08;0.30;;;;;;;23.22;55.34;100679.13;5006903;28;20018;-85
2022/09/03 11:00:09;;;;;;;1.00;0.30;;;;;;;23.33;55.24;100667.75;5009942;28;20473;-85
2022/09/03 11:02:53;;;;;;;2.13;0.20;;;;;;;23.45;55.27;100669.44;5009904;28;20148;-84
2022/09/03 11:05:44;;;;;;;;;;;;;;;;;;;;;
2022/09/03 11:08:12;;;;;;;1.58;0.22;;;;;;;23.38;55.50;100668.72;5010343;28;20037;-85
2022/09/03 11:10:43;;;;;;;1.23;0.20;;;;;;;23.26;55.41;100664.34;5009840;28;20478;-84
2022/09/03 11:13:28;;;;;;;1.02;0.20;;;;;;;23.47;53.80;100663.91;5009854;28;20494;-85
2022/09/03 11:15:59;;;;;;;0.73;0.25;;;;;;;23.61;53.85;100670.72;5009181;28;20041;-85
2022/09/03 11:18:37;;;;;;;1.67;0.35;;;;;;;23.59;54.05;100666.66;5008644;28;20076;-86
2022/09/03 11:21:17;;;;;;;1.50;0.20;;;;;;;23.52;54.72;100658.72;5008681;28;20033;-85
2022/09/03 11:23:49;;;;;;;0.85;0.20;;;;;;;23.47;55.18;100659.41;5008184;28;20049;-85
2022/09/03 11:26:18;;;;;;;1.30;0.20;;;;;;;23.57;54.61;100674.03;5009351;28;20056;-86
2022/09/03 11:29:11;;;;;;;1.00;0.30;;;;;;;23.65;52.99;100679.03;5008001;28;20045;-85
2022/09/03 11:32:07;;;;;;;2.80;0.45;;;;;;;23.65;52.56;100666.53;5019801;28;20045;-85
2022/09/03 11:34:46;;;;;;;0.93;0.20;;;;;;;23.57;52.27;100668.72;4996113;28;20227;-86
2022/09/03 11:37:29;;;;;;;1.95;0.40;;;;;;;23.58;53.58;100665.03;5008888;28;20540;-86
2022/09/03 11:40:27;;;;;;;;;;;;;;;;;;;;;
2022/09/03 11:42:52;;;;;;;0.82;0.20;;;;;;;23.60;52.97;100657.63;5006662;28;20349;-85
2022/09/03 11:45:20;;;;;;;0.43;0.20;;;;;;;23.56;53.52;100661.78;5008578;28;20032;-85
2022/09/03 11:47:46;;;;;;;0.50;0.20;;;;;;;23.56;54.41;100656.47;5019476;28;20045;-85
2022/09/03 11:50:19;;;;;;;4.93;0.43;;;;;;;23.68;55.23;100655.44;5004503;28;20038;-84
2022/09/03 11:52:46;;;;;;;2.83;0.30;;;;;;;23.81;54.47;100655.25;5014505;28;20279;-84
2022/09/03 11:55:23;;;;;;;1.75;0.30;;;;;;;23.84;53.98;100654.00;5007163;28;20171;-85
2022/09/03 11:57:49;;;;;;;3.03;0.30;;;;;;;23.83;53.89;100652.38;4997872;28;20030;-85
2022/09/03 12:00:20;;;;;;;4.65;0.30;;;;;;;23.90;54.49;100655.75;5002118;28;20057;-85
2022/09/03 12:02:55;;;;;;;0.63;0.25;;;;;;;23.95;54.17;100658.56;5001369;28;20076;-85